sensor_id;sensor_type;location;lat;lon;timestamp;P1;durP1;ratioP1;P2;durP2;ratioP2
34928;SDS011;21133;48.048;7.724;2022-10-22T00:02:08;0.60;;;0.60;;
34928;SDS011;21133;48.048;7.724;2022-10-22T00:04:34;1.83;;;1.73;;
34928;SDS011;21133;48.048;7.724;2022-10-22T00:07:00;5.30;;;0.87;;
34928;SDS011;21133;48.048;7.724;2022-10-22T00:09:26;0.90;;;0.70;;
34928;SDS011;21133;48.048;7.724;2022-10-22T00:11:52;1.40;;;0.90;;
34928;SDS011;21133;48.048;7.724;2022-10-22T00:14:18;5.17;;;1.03;;
34928;SDS011;21133;48.048;7.724;2022-10-22T00:16:44;0.80;;;0.60;;
34928;SDS011;21133;48.048;7.724;2022-10-22T00:19:10;0.80;;;0.80;;
34928;SDS011;21133;48.048;7.724;2022-10-22T00:21:37;0.50;;;0.50;;
34928;SDS011;21133;48.048;7.724;2022-10-22T00:24:03;3.23;;;0.60;;
34928;SDS011;21133;48.048;7.724;2022-10-22T00:26:29;0.40;;;0.40;;
34928;SDS011;21133;48.048;7.724;2022-10-22T00:28:55;3.60;;;0.77;;
34928;SDS011;21133;48.048;7.724;2022-10-22T00:31:21;0.73;;;0.73;;
34928;SDS011;21133;48.048;7.724;2022-10-22T00:33:47;3.00;;;0.40;;
34928;SDS011;21133;48.048;7.724;2022-10-22T00:36:14;0.60;;;0.60;;
34928;SDS011;21133;48.048;7.724;2022-10-22T00:38:40;0.93;;;0.93;;
34928;SDS011;21133;48.048;7.724;2022-10-22T00:41:06;0.60;;;0.60;;
34928;SDS011;21133;48.048;7.724;2022-10-22T00:43:32;0.60;;;0.60;;
34928;SDS011;21133;48.048;7.724;2022-10-22T00:45:58;3.50;;;0.67;;
34928;SDS011;21133;48.048;7.724;2022-10-22T00:48:24;0.40;;;0.40;;
34928;SDS011;21133;48.048;7.724;2022-10-22T00:53:36;6.40;;;0.80;;
34928;SDS011;21133;48.048;7.724;2022-10-22T00:56:03;1.57;;;0.70;;
34928;SDS011;21133;48.048;7.724;2022-10-22T00:58:31;2.20;;;0.70;;
34928;SDS011;21133;48.048;7.724;2022-10-22T01:00:59;0.60;;;0.60;;
34928;SDS011;21133;48.048;7.724;2022-10-22T01:03:25;0.73;;;0.70;;
34928;SDS011;21133;48.048;7.724;2022-10-22T01:05:55;1.33;;;1.33;;
34928;SDS011;21133;48.048;7.724;2022-10-22T01:10:58;0.70;;;0.70;;
34928;SDS011;21133;48.048;7.724;2022-10-22T01:18:36;6.13;;;0.77;;
34928;SDS011;21133;48.048;7.724;2022-10-22T01:21:11;0.40;;;0.40;;
34928;SDS011;21133;48.048;7.724;2022-10-22T01:23:49;1.47;;;0.93;;
34928;SDS011;21133;48.048;7.724;2022-10-22T01:28:51;0.70;;;0.70;;
34928;SDS011;21133;48.048;7.724;2022-10-22T01:31:18;0.50;;;0.50;;
34928;SDS011;21133;48.048;7.724;2022-10-22T01:33:46;0.70;;;0.60;;
34928;SDS011;21133;48.048;7.724;2022-10-22T01:36:13;2.97;;;1.20;;
34928;SDS011;21133;48.048;7.724;2022-10-22T01:38:40;2.93;;;0.60;;
34928;SDS011;21133;48.048;7.724;2022-10-22T01:41:06;2.50;;;0.70;;
34928;SDS011;21133;48.048;7.724;2022-10-22T01:43:32;5.40;;;1.07;;
34928;SDS011;21133;48.048;7.724;2022-10-22T01:45:59;2.10;;;0.77;;
34928;SDS011;21133;48.048;7.724;2022-10-22T01:48:50;1.07;;;0.60;;
34928;SDS011;21133;48.048;7.724;2022-10-22T01:51:33;2.10;;;0.77;;
34928;SDS011;21133;48.048;7.724;2022-10-22T01:54:26;1.03;;;0.80;;
34928;SDS011;21133;48.048;7.724;2022-10-22T01:59:18;0.60;;;0.60;;
34928;SDS011;21133;48.048;7.724;2022-10-22T02:01:58;1.13;;;0.60;;
34928;SDS011;21133;48.048;7.724;2022-10-22T02:04:27;2.53;;;0.93;;
34928;SDS011;21133;48.048;7.724;2022-10-22T02:06:56;0.67;;;0.67;;
34928;SDS011;21133;48.048;7.724;2022-10-22T02:09:23;0.60;;;0.60;;
34928;SDS011;21133;48.048;7.724;2022-10-22T02:11:50;0.80;;;0.80;;
34928;SDS011;21133;48.048;7.724;2022-10-22T02:14:16;0.67;;;0.67;;
34928;SDS011;21133;48.048;7.724;2022-10-22T02:16:43;0.53;;;0.53;;
34928;SDS011;21133;48.048;7.724;2022-10-22T02:19:14;0.60;;;0.60;;
34928;SDS011;21133;48.048;7.724;2022-10-22T02:21:42;0.93;;;0.93;;
34928;SDS011;21133;48.048;7.724;2022-10-22T02:24:08;0.77;;;0.77;;
34928;SDS011;21133;48.048;7.724;2022-10-22T02:26:38;0.70;;;0.70;;
34928;SDS011;21133;48.048;7.724;2022-10-22T02:29:06;0.87;;;0.87;;
34928;SDS011;21133;48.048;7.724;2022-10-22T02:31:35;2.47;;;0.90;;
34928;SDS011;21133;48.048;7.724;2022-10-22T02:34:04;1.00;;;0.90;;
34928;SDS011;21133;48.048;7.724;2022-10-22T02:36:32;1.53;;;0.70;;
34928;SDS011;21133;48.048;7.724;2022-10-22T02:38:59;2.00;;;0.70;;
34928;SDS011;21133;48.048;7.724;2022-10-22T02:41:25;1.10;;;1.10;;
34928;SDS011;21133;48.048;7.724;2022-10-22T02:43:53;1.23;;;1.23;;
34928;SDS011;21133;48.048;7.724;2022-10-22T02:46:19;9.57;;;1.20;;
34928;SDS011;21133;48.048;7.724;2022-10-22T02:48:45;1.13;;;1.10;;
34928;SDS011;21133;48.048;7.724;2022-10-22T02:51:11;1.10;;;1.10;;
34928;SDS011;21133;48.048;7.724;2022-10-22T02:53:37;1.40;;;1.40;;
34928;SDS011;21133;48.048;7.724;2022-10-22T02:56:03;1.40;;;1.40;;
34928;SDS011;21133;48.048;7.724;2022-10-22T02:58:29;1.63;;;1.50;;
34928;SDS011;21133;48.048;7.724;2022-10-22T03:00:55;2.57;;;1.27;;
34928;SDS011;21133;48.048;7.724;2022-10-22T03:03:21;2.40;;;1.43;;
34928;SDS011;21133;48.048;7.724;2022-10-22T03:05:48;3.13;;;1.77;;
34928;SDS011;21133;48.048;7.724;2022-10-22T03:08:14;2.10;;;2.00;;
34928;SDS011;21133;48.048;7.724;2022-10-22T03:10:40;6.53;;;2.20;;
34928;SDS011;21133;48.048;7.724;2022-10-22T03:13:06;3.23;;;1.70;;
34928;SDS011;21133;48.048;7.724;2022-10-22T03:15:32;2.23;;;2.13;;
34928;SDS011;21133;48.048;7.724;2022-10-22T03:17:58;3.53;;;2.60;;
34928;SDS011;21133;48.048;7.724;2022-10-22T03:20:24;2.83;;;2.60;;
34928;SDS011;21133;48.048;7.724;2022-10-22T03:22:50;3.27;;;2.57;;
34928;SDS011;21133;48.048;7.724;2022-10-22T03:25:18;2.20;;;2.20;;
34928;SDS011;21133;48.048;7.724;2022-10-22T03:27:45;2.17;;;2.17;;
34928;SDS011;21133;48.048;7.724;2022-10-22T03:30:12;2.13;;;2.10;;
34928;SDS011;21133;48.048;7.724;2022-10-22T03:32:38;3.57;;;3.13;;
34928;SDS011;21133;48.048;7.724;2022-10-22T03:35:04;4.23;;;2.90;;
34928;SDS011;21133;48.048;7.724;2022-10-22T03:37:30;2.90;;;2.73;;
34928;SDS011;21133;48.048;7.724;2022-10-22T03:39:57;2.40;;;2.40;;
34928;SDS011;21133;48.048;7.724;2022-10-22T03:42:23;2.97;;;2.80;;
34928;SDS011;21133;48.048;7.724;2022-10-22T03:44:49;4.03;;;3.30;;
34928;SDS011;21133;48.048;7.724;2022-10-22T03:47:15;1.97;;;1.97;;
34928;SDS011;21133;48.048;7.724;2022-10-22T03:49:41;2.37;;;2.23;;
34928;SDS011;21133;48.048;7.724;2022-10-22T03:52:08;2.77;;;2.50;;
34928;SDS011;21133;48.048;7.724;2022-10-22T03:54:34;3.07;;;2.87;;
34928;SDS011;21133;48.048;7.724;2022-10-22T03:57:01;2.90;;;2.70;;
34928;SDS011;21133;48.048;7.724;2022-10-22T03:59:27;3.80;;;2.83;;
34928;SDS011;21133;48.048;7.724;2022-10-22T04:01:53;5.20;;;3.30;;
34928;SDS011;21133;48.048;7.724;2022-10-22T04:04:19;2.90;;;2.80;;
34928;SDS011;21133;48.048;7.724;2022-10-22T04:06:45;1.87;;;1.80;;
34928;SDS011;21133;48.048;7.724;2022-10-22T04:09:11;3.10;;;3.00;;
34928;SDS011;21133;48.048;7.724;2022-10-22T04:11:37;2.20;;;2.20;;
34928;SDS011;21133;48.048;7.724;2022-10-22T04:14:03;3.20;;;3.13;;
34928;SDS011;21133;48.048;7.724;2022-10-22T04:16:29;6.10;;;2.30;;
34928;SDS011;21133;48.048;7.724;2022-10-22T04:18:56;2.27;;;2.27;;
34928;SDS011;21133;48.048;7.724;2022-10-22T04:21:23;3.30;;;2.40;;
34928;SDS011;21133;48.048;7.724;2022-10-22T04:23:49;3.07;;;2.97;;
34928;SDS011;21133;48.048;7.724;2022-10-22T04:26:16;3.03;;;2.83;;
34928;SDS011;21133;48.048;7.724;2022-10-22T04:28:42;2.83;;;2.63;;
34928;SDS011;21133;48.048;7.724;2022-10-22T04:31:09;3.40;;;3.20;;
34928;SDS011;21133;48.048;7.724;2022-10-22T04:33:35;3.50;;;3.30;;
34928;SDS011;21133;48.048;7.724;2022-10-22T04:36:11;3.10;;;2.90;;
34928;SDS011;21133;48.048;7.724;2022-10-22T04:38:38;5.77;;;3.03;;
34928;SDS011;21133;48.048;7.724;2022-10-22T04:41:09;3.53;;;3.33;;
34928;SDS011;21133;48.048;7.724;2022-10-22T04:43:35;3.17;;;2.80;;
34928;SDS011;21133;48.048;7.724;2022-10-22T04:46:01;2.90;;;2.80;;
34928;SDS011;21133;48.048;7.724;2022-10-22T04:48:27;3.33;;;3.10;;
34928;SDS011;21133;48.048;7.724;2022-10-22T04:50:53;6.73;;;3.17;;
34928;SDS011;21133;48.048;7.724;2022-10-22T04:53:21;3.27;;;3.00;;
34928;SDS011;21133;48.048;7.724;2022-10-22T04:55:47;3.07;;;2.90;;
34928;SDS011;21133;48.048;7.724;2022-10-22T04:58:14;2.93;;;2.83;;
34928;SDS011;21133;48.048;7.724;2022-10-22T05:00:41;3.50;;;3.20;;
34928;SDS011;21133;48.048;7.724;2022-10-22T05:03:07;12.03;;;3.40;;
34928;SDS011;21133;48.048;7.724;2022-10-22T05:05:33;3.57;;;3.47;;
34928;SDS011;21133;48.048;7.724;2022-10-22T05:07:59;3.03;;;2.83;;
34928;SDS011;21133;48.048;7.724;2022-10-22T05:10:25;3.60;;;3.40;;
34928;SDS011;21133;48.048;7.724;2022-10-22T05:12:51;5.60;;;4.00;;
34928;SDS011;21133;48.048;7.724;2022-10-22T05:15:16;3.70;;;3.43;;
34928;SDS011;21133;48.048;7.724;2022-10-22T05:17:42;3.10;;;3.00;;
34928;SDS011;21133;48.048;7.724;2022-10-22T05:20:08;4.00;;;3.80;;
34928;SDS011;21133;48.048;7.724;2022-10-22T05:22:35;3.57;;;3.37;;
34928;SDS011;21133;48.048;7.724;2022-10-22T05:25:00;3.70;;;3.60;;
34928;SDS011;21133;48.048;7.724;2022-10-22T05:27:26;4.13;;;3.93;;
34928;SDS011;21133;48.048;7.724;2022-10-22T05:29:52;3.70;;;3.60;;
34928;SDS011;21133;48.048;7.724;2022-10-22T05:32:18;4.90;;;4.60;;
34928;SDS011;21133;48.048;7.724;2022-10-22T05:34:44;6.13;;;5.77;;
34928;SDS011;21133;48.048;7.724;2022-10-22T05:37:10;7.60;;;5.23;;
34928;SDS011;21133;48.048;7.724;2022-10-22T05:39:36;3.87;;;3.67;;
34928;SDS011;21133;48.048;7.724;2022-10-22T05:42:04;8.93;;;5.07;;
34928;SDS011;21133;48.048;7.724;2022-10-22T05:44:30;5.07;;;4.87;;
34928;SDS011;21133;48.048;7.724;2022-10-22T05:46:56;5.17;;;4.67;;
34928;SDS011;21133;48.048;7.724;2022-10-22T05:49:22;4.30;;;4.10;;
34928;SDS011;21133;48.048;7.724;2022-10-22T05:51:48;4.67;;;4.40;;
34928;SDS011;21133;48.048;7.724;2022-10-22T05:54:15;4.87;;;4.67;;
34928;SDS011;21133;48.048;7.724;2022-10-22T05:56:42;5.10;;;4.80;;
34928;SDS011;21133;48.048;7.724;2022-10-22T05:59:09;4.87;;;4.40;;
34928;SDS011;21133;48.048;7.724;2022-10-22T06:01:35;5.07;;;4.87;;
34928;SDS011;21133;48.048;7.724;2022-10-22T06:04:02;6.10;;;5.60;;
34928;SDS011;21133;48.048;7.724;2022-10-22T06:06:30;4.87;;;4.47;;
34928;SDS011;21133;48.048;7.724;2022-10-22T06:09:02;4.43;;;4.23;;
34928;SDS011;21133;48.048;7.724;2022-10-22T06:11:29;4.40;;;4.30;;
34928;SDS011;21133;48.048;7.724;2022-10-22T06:13:55;4.43;;;4.23;;
34928;SDS011;21133;48.048;7.724;2022-10-22T06:16:21;4.60;;;4.00;;
34928;SDS011;21133;48.048;7.724;2022-10-22T06:18:47;6.37;;;4.70;;
34928;SDS011;21133;48.048;7.724;2022-10-22T06:21:14;9.70;;;6.37;;
34928;SDS011;21133;48.048;7.724;2022-10-22T06:23:42;6.07;;;5.57;;
34928;SDS011;21133;48.048;7.724;2022-10-22T06:26:09;4.87;;;4.67;;
34928;SDS011;21133;48.048;7.724;2022-10-22T06:28:35;5.37;;;4.97;;
34928;SDS011;21133;48.048;7.724;2022-10-22T06:31:02;5.20;;;4.90;;
34928;SDS011;21133;48.048;7.724;2022-10-22T06:33:28;4.33;;;4.20;;
34928;SDS011;21133;48.048;7.724;2022-10-22T06:36:02;6.00;;;5.60;;
34928;SDS011;21133;48.048;7.724;2022-10-22T06:38:28;6.90;;;5.83;;
34928;SDS011;21133;48.048;7.724;2022-10-22T06:41:00;5.00;;;4.63;;
34928;SDS011;21133;48.048;7.724;2022-10-22T06:43:27;5.63;;;5.33;;
34928;SDS011;21133;48.048;7.724;2022-10-22T06:45:57;6.50;;;6.10;;
34928;SDS011;21133;48.048;7.724;2022-10-22T06:48:23;6.70;;;6.30;;
34928;SDS011;21133;48.048;7.724;2022-10-22T06:50:49;5.87;;;5.40;;
34928;SDS011;21133;48.048;7.724;2022-10-22T06:53:15;16.87;;;7.00;;
34928;SDS011;21133;48.048;7.724;2022-10-22T06:55:41;8.07;;;5.70;;
34928;SDS011;21133;48.048;7.724;2022-10-22T06:58:07;16.10;;;7.33;;
34928;SDS011;21133;48.048;7.724;2022-10-22T07:00:33;9.03;;;6.53;;
34928;SDS011;21133;48.048;7.724;2022-10-22T07:02:59;18.23;;;7.25;;
34928;SDS011;21133;48.048;7.724;2022-10-22T07:05:24;8.80;;;8.00;;
34928;SDS011;21133;48.048;7.724;2022-10-22T07:07:50;8.20;;;7.47;;
34928;SDS011;21133;48.048;7.724;2022-10-22T07:10:16;12.47;;;7.57;;
34928;SDS011;21133;48.048;7.724;2022-10-22T07:12:42;7.30;;;6.70;;
34928;SDS011;21133;48.048;7.724;2022-10-22T07:15:08;7.03;;;6.43;;
34928;SDS011;21133;48.048;7.724;2022-10-22T07:17:35;6.13;;;5.70;;
34928;SDS011;21133;48.048;7.724;2022-10-22T07:20:01;6.17;;;5.87;;
34928;SDS011;21133;48.048;7.724;2022-10-22T07:22:27;6.83;;;6.33;;
34928;SDS011;21133;48.048;7.724;2022-10-22T07:24:53;10.23;;;6.27;;
34928;SDS011;21133;48.048;7.724;2022-10-22T07:27:19;7.33;;;6.83;;
34928;SDS011;21133;48.048;7.724;2022-10-22T07:29:45;7.50;;;6.90;;
34928;SDS011;21133;48.048;7.724;2022-10-22T07:32:11;8.20;;;7.00;;
34928;SDS011;21133;48.048;7.724;2022-10-22T07:34:37;7.20;;;6.70;;
34928;SDS011;21133;48.048;7.724;2022-10-22T07:37:03;8.00;;;7.20;;
34928;SDS011;21133;48.048;7.724;2022-10-22T07:39:29;8.47;;;7.67;;
34928;SDS011;21133;48.048;7.724;2022-10-22T07:41:55;9.27;;;7.87;;
34928;SDS011;21133;48.048;7.724;2022-10-22T07:44:21;11.40;;;8.77;;
34928;SDS011;21133;48.048;7.724;2022-10-22T07:46:46;9.10;;;8.20;;
34928;SDS011;21133;48.048;7.724;2022-10-22T07:49:12;8.60;;;7.80;;
34928;SDS011;21133;48.048;7.724;2022-10-22T07:51:38;8.30;;;7.70;;
34928;SDS011;21133;48.048;7.724;2022-10-22T07:54:04;7.57;;;6.93;;
34928;SDS011;21133;48.048;7.724;2022-10-22T07:56:30;11.30;;;7.90;;
34928;SDS011;21133;48.048;7.724;2022-10-22T07:58:56;16.33;;;8.30;;
34928;SDS011;21133;48.048;7.724;2022-10-22T08:01:22;10.05;;;9.25;;
34928;SDS011;21133;48.048;7.724;2022-10-22T08:03:48;9.80;;;8.80;;
34928;SDS011;21133;48.048;7.724;2022-10-22T08:06:15;7.00;;;6.50;;
34928;SDS011;21133;48.048;7.724;2022-10-22T08:08:41;9.33;;;8.53;;
34928;SDS011;21133;48.048;7.724;2022-10-22T08:11:09;7.90;;;7.33;;
34928;SDS011;21133;48.048;7.724;2022-10-22T08:13:35;9.60;;;8.80;;
34928;SDS011;21133;48.048;7.724;2022-10-22T08:16:02;8.17;;;7.57;;
34928;SDS011;21133;48.048;7.724;2022-10-22T08:18:28;13.97;;;8.90;;
34928;SDS011;21133;48.048;7.724;2022-10-22T08:20:54;9.00;;;8.10;;
34928;SDS011;21133;48.048;7.724;2022-10-22T08:23:20;11.00;;;9.90;;
34928;SDS011;21133;48.048;7.724;2022-10-22T08:25:46;8.43;;;7.73;;
34928;SDS011;21133;48.048;7.724;2022-10-22T08:28:12;8.80;;;8.10;;
34928;SDS011;21133;48.048;7.724;2022-10-22T08:30:38;12.13;;;8.10;;
34928;SDS011;21133;48.048;7.724;2022-10-22T08:33:05;8.87;;;8.17;;
34928;SDS011;21133;48.048;7.724;2022-10-22T08:35:31;6.23;;;5.73;;
34928;SDS011;21133;48.048;7.724;2022-10-22T08:37:57;6.70;;;6.10;;
34928;SDS011;21133;48.048;7.724;2022-10-22T08:40:30;8.20;;;6.87;;
34928;SDS011;21133;48.048;7.724;2022-10-22T08:45:33;6.80;;;6.17;;
34928;SDS011;21133;48.048;7.724;2022-10-22T08:48:08;9.47;;;7.63;;
34928;SDS011;21133;48.048;7.724;2022-10-22T08:50:39;6.87;;;6.43;;
34928;SDS011;21133;48.048;7.724;2022-10-22T08:53:07;3.23;;;3.13;;
34928;SDS011;21133;48.048;7.724;2022-10-22T08:55:37;6.30;;;5.80;;
34928;SDS011;21133;48.048;7.724;2022-10-22T09:00:54;6.23;;;5.57;;
34928;SDS011;21133;48.048;7.724;2022-10-22T09:06:12;4.77;;;4.30;;
34928;SDS011;21133;48.048;7.724;2022-10-22T09:08:39;5.10;;;4.90;;
34928;SDS011;21133;48.048;7.724;2022-10-22T09:13:32;4.30;;;4.10;;
34928;SDS011;21133;48.048;7.724;2022-10-22T09:15:59;5.23;;;4.90;;
34928;SDS011;21133;48.048;7.724;2022-10-22T09:18:38;5.00;;;4.80;;
34928;SDS011;21133;48.048;7.724;2022-10-22T09:21:15;13.67;;;6.50;;
34928;SDS011;21133;48.048;7.724;2022-10-22T09:26:13;5.10;;;4.90;;
34928;SDS011;21133;48.048;7.724;2022-10-22T09:28:39;5.23;;;4.83;;
34928;SDS011;21133;48.048;7.724;2022-10-22T09:31:12;4.33;;;4.03;;
34928;SDS011;21133;48.048;7.724;2022-10-22T09:33:39;4.07;;;3.77;;
34928;SDS011;21133;48.048;7.724;2022-10-22T09:36:05;3.47;;;3.37;;
34928;SDS011;21133;48.048;7.724;2022-10-22T09:38:45;5.93;;;4.10;;
34928;SDS011;21133;48.048;7.724;2022-10-22T09:41:12;3.37;;;3.10;;
34928;SDS011;21133;48.048;7.724;2022-10-22T09:43:38;2.90;;;2.70;;
34928;SDS011;21133;48.048;7.724;2022-10-22T09:46:06;2.67;;;2.57;;
34928;SDS011;21133;48.048;7.724;2022-10-22T09:48:40;3.23;;;3.03;;
34928;SDS011;21133;48.048;7.724;2022-10-22T09:51:12;3.73;;;2.10;;
34928;SDS011;21133;48.048;7.724;2022-10-22T09:53:41;1.43;;;1.30;;
34928;SDS011;21133;48.048;7.724;2022-10-22T09:56:33;3.93;;;1.27;;
34928;SDS011;21133;48.048;7.724;2022-10-22T09:58:57;1.27;;;0.70;;
34928;SDS011;21133;48.048;7.724;2022-10-22T10:03:49;3.37;;;0.60;;
34928;SDS011;21133;48.048;7.724;2022-10-22T10:06:19;0.50;;;0.50;;
34928;SDS011;21133;48.048;7.724;2022-10-22T10:08:45;1.27;;;1.17;;
34928;SDS011;21133;48.048;7.724;2022-10-22T10:16:56;1.40;;;1.40;;
34928;SDS011;21133;48.048;7.724;2022-10-22T10:22:04;4.70;;;4.43;;
34928;SDS011;21133;48.048;7.724;2022-10-22T10:24:49;3.60;;;1.80;;
34928;SDS011;21133;48.048;7.724;2022-10-22T10:32:23;1.27;;;1.13;;
34928;SDS011;21133;48.048;7.724;2022-10-22T10:34:56;1.53;;;0.90;;
34928;SDS011;21133;48.048;7.724;2022-10-22T10:37:34;1.03;;;1.03;;
34928;SDS011;21133;48.048;7.724;2022-10-22T10:40:28;1.50;;;1.40;;
34928;SDS011;21133;48.048;7.724;2022-10-22T10:43:04;3.23;;;1.43;;
34928;SDS011;21133;48.048;7.724;2022-10-22T10:51:24;1.73;;;1.03;;
34928;SDS011;21133;48.048;7.724;2022-10-22T10:54:10;0.90;;;0.90;;
34928;SDS011;21133;48.048;7.724;2022-10-22T10:56:41;1.87;;;0.80;;
34928;SDS011;21133;48.048;7.724;2022-10-22T10:59:22;2.70;;;1.10;;
34928;SDS011;21133;48.048;7.724;2022-10-22T11:01:58;1.70;;;1.37;;
34928;SDS011;21133;48.048;7.724;2022-10-22T11:07:13;1.50;;;1.00;;
34928;SDS011;21133;48.048;7.724;2022-10-22T11:09:42;3.37;;;0.80;;
34928;SDS011;21133;48.048;7.724;2022-10-22T11:12:13;10.93;;;1.07;;
34928;SDS011;21133;48.048;7.724;2022-10-22T11:14:47;8.80;;;0.80;;
34928;SDS011;21133;48.048;7.724;2022-10-22T11:17:16;0.90;;;0.90;;
34928;SDS011;21133;48.048;7.724;2022-10-22T11:19:44;1.00;;;0.90;;
34928;SDS011;21133;48.048;7.724;2022-10-22T11:24:44;1.83;;;1.10;;
34928;SDS011;21133;48.048;7.724;2022-10-22T11:29:43;1.23;;;0.70;;
34928;SDS011;21133;48.048;7.724;2022-10-22T11:32:16;9.57;;;2.63;;
34928;SDS011;21133;48.048;7.724;2022-10-22T11:34:47;0.70;;;0.70;;
34928;SDS011;21133;48.048;7.724;2022-10-22T11:37:14;2.73;;;2.17;;
34928;SDS011;21133;48.048;7.724;2022-10-22T11:42:35;1.17;;;1.07;;
34928;SDS011;21133;48.048;7.724;2022-10-22T11:47:31;1.53;;;1.40;;
34928;SDS011;21133;48.048;7.724;2022-10-22T11:49:58;13.53;;;1.57;;
34928;SDS011;21133;48.048;7.724;2022-10-22T11:54:56;3.13;;;1.20;;
34928;SDS011;21133;48.048;7.724;2022-10-22T11:57:34;1.77;;;1.13;;
34928;SDS011;21133;48.048;7.724;2022-10-22T12:00:01;0.70;;;0.70;;
34928;SDS011;21133;48.048;7.724;2022-10-22T12:02:38;1.00;;;0.83;;
34928;SDS011;21133;48.048;7.724;2022-10-22T12:10:19;1.60;;;1.00;;
34928;SDS011;21133;48.048;7.724;2022-10-22T12:13:01;1.17;;;0.80;;
34928;SDS011;21133;48.048;7.724;2022-10-22T12:15:29;3.40;;;1.10;;
34928;SDS011;21133;48.048;7.724;2022-10-22T12:17:59;5.10;;;1.67;;
34928;SDS011;21133;48.048;7.724;2022-10-22T12:20:25;3.80;;;1.30;;
34928;SDS011;21133;48.048;7.724;2022-10-22T12:22:52;3.40;;;0.93;;
34928;SDS011;21133;48.048;7.724;2022-10-22T12:25:23;3.60;;;1.00;;
34928;SDS011;21133;48.048;7.724;2022-10-22T12:27:54;2.77;;;1.40;;
34928;SDS011;21133;48.048;7.724;2022-10-22T12:30:22;6.70;;;1.20;;
34928;SDS011;21133;48.048;7.724;2022-10-22T12:32:52;2.03;;;1.27;;
34928;SDS011;21133;48.048;7.724;2022-10-22T12:35:22;0.80;;;0.80;;
34928;SDS011;21133;48.048;7.724;2022-10-22T12:37:50;3.23;;;1.10;;
34928;SDS011;21133;48.048;7.724;2022-10-22T12:40:20;1.00;;;0.80;;
34928;SDS011;21133;48.048;7.724;2022-10-22T12:43:32;4.50;;;1.00;;
34928;SDS011;21133;48.048;7.724;2022-10-22T12:45:33;1.03;;;1.03;;
34928;SDS011;21133;48.048;7.724;2022-10-22T12:48:07;4.10;;;1.10;;
34928;SDS011;21133;48.048;7.724;2022-10-22T12:50:34;2.57;;;1.53;;
34928;SDS011;21133;48.048;7.724;2022-10-22T12:53:04;1.53;;;0.90;;
34928;SDS011;21133;48.048;7.724;2022-10-22T12:55:30;1.20;;;0.83;;
34928;SDS011;21133;48.048;7.724;2022-10-22T12:57:56;1.50;;;0.70;;
34928;SDS011;21133;48.048;7.724;2022-10-22T13:00:23;0.97;;;0.97;;
34928;SDS011;21133;48.048;7.724;2022-10-22T13:02:50;1.27;;;0.90;;
34928;SDS011;21133;48.048;7.724;2022-10-22T13:05:20;1.67;;;1.00;;
34928;SDS011;21133;48.048;7.724;2022-10-22T13:07:50;0.90;;;0.87;;
34928;SDS011;21133;48.048;7.724;2022-10-22T13:10:22;1.60;;;1.50;;
34928;SDS011;21133;48.048;7.724;2022-10-22T13:12:49;6.63;;;1.43;;
34928;SDS011;21133;48.048;7.724;2022-10-22T13:15:19;2.80;;;1.00;;
34928;SDS011;21133;48.048;7.724;2022-10-22T13:17:46;1.27;;;1.20;;
34928;SDS011;21133;48.048;7.724;2022-10-22T13:20:19;2.63;;;1.40;;
34928;SDS011;21133;48.048;7.724;2022-10-22T13:22:53;0.80;;;0.80;;
34928;SDS011;21133;48.048;7.724;2022-10-22T13:25:20;2.43;;;1.23;;
34928;SDS011;21133;48.048;7.724;2022-10-22T13:27:48;3.83;;;1.20;;
34928;SDS011;21133;48.048;7.724;2022-10-22T13:30:25;0.67;;;0.67;;
34928;SDS011;21133;48.048;7.724;2022-10-22T13:32:52;0.97;;;0.97;;
34928;SDS011;21133;48.048;7.724;2022-10-22T13:35:20;5.50;;;0.87;;
34928;SDS011;21133;48.048;7.724;2022-10-22T13:37:47;4.00;;;1.30;;
34928;SDS011;21133;48.048;7.724;2022-10-22T13:40:13;1.30;;;0.80;;
34928;SDS011;21133;48.048;7.724;2022-10-22T13:42:39;1.13;;;1.10;;
34928;SDS011;21133;48.048;7.724;2022-10-22T13:45:05;0.90;;;0.90;;
34928;SDS011;21133;48.048;7.724;2022-10-22T13:47:31;2.83;;;0.93;;
34928;SDS011;21133;48.048;7.724;2022-10-22T13:50:00;1.33;;;0.90;;
34928;SDS011;21133;48.048;7.724;2022-10-22T13:52:28;2.63;;;1.17;;
34928;SDS011;21133;48.048;7.724;2022-10-22T13:54:56;2.30;;;1.00;;
34928;SDS011;21133;48.048;7.724;2022-10-22T13:57:22;1.20;;;1.10;;
34928;SDS011;21133;48.048;7.724;2022-10-22T13:59:48;1.00;;;0.90;;
34928;SDS011;21133;48.048;7.724;2022-10-22T14:02:14;0.47;;;0.47;;
34928;SDS011;21133;48.048;7.724;2022-10-22T14:04:40;1.10;;;0.60;;
34928;SDS011;21133;48.048;7.724;2022-10-22T14:07:16;0.83;;;0.83;;
34928;SDS011;21133;48.048;7.724;2022-10-22T14:09:42;0.70;;;0.70;;
34928;SDS011;21133;48.048;7.724;2022-10-22T14:12:12;0.73;;;0.73;;
34928;SDS011;21133;48.048;7.724;2022-10-22T14:14:38;0.70;;;0.70;;
34928;SDS011;21133;48.048;7.724;2022-10-22T14:17:05;2.90;;;1.60;;
34928;SDS011;21133;48.048;7.724;2022-10-22T14:19:33;4.73;;;0.93;;
34928;SDS011;21133;48.048;7.724;2022-10-22T14:21:59;0.60;;;0.60;;
34928;SDS011;21133;48.048;7.724;2022-10-22T14:24:25;0.93;;;0.63;;
34928;SDS011;21133;48.048;7.724;2022-10-22T14:26:51;0.97;;;0.87;;
34928;SDS011;21133;48.048;7.724;2022-10-22T14:29:17;6.43;;;1.10;;
34928;SDS011;21133;48.048;7.724;2022-10-22T14:31:43;0.70;;;0.70;;
34928;SDS011;21133;48.048;7.724;2022-10-22T14:34:09;2.73;;;1.00;;
34928;SDS011;21133;48.048;7.724;2022-10-22T14:36:35;3.53;;;1.00;;
34928;SDS011;21133;48.048;7.724;2022-10-22T14:39:02;3.03;;;0.70;;
34928;SDS011;21133;48.048;7.724;2022-10-22T14:41:28;1.70;;;0.70;;
34928;SDS011;21133;48.048;7.724;2022-10-22T14:43:54;0.83;;;0.83;;
34928;SDS011;21133;48.048;7.724;2022-10-22T14:46:21;1.43;;;1.23;;
34928;SDS011;21133;48.048;7.724;2022-10-22T14:48:47;0.83;;;0.83;;
34928;SDS011;21133;48.048;7.724;2022-10-22T14:51:14;0.70;;;0.70;;
34928;SDS011;21133;48.048;7.724;2022-10-22T14:53:40;1.77;;;0.77;;
34928;SDS011;21133;48.048;7.724;2022-10-22T14:56:08;0.80;;;0.80;;
34928;SDS011;21133;48.048;7.724;2022-10-22T14:58:34;3.20;;;2.33;;
34928;SDS011;21133;48.048;7.724;2022-10-22T15:01:01;3.80;;;0.80;;
34928;SDS011;21133;48.048;7.724;2022-10-22T15:03:27;0.97;;;0.83;;
34928;SDS011;21133;48.048;7.724;2022-10-22T15:05:53;0.77;;;0.77;;
34928;SDS011;21133;48.048;7.724;2022-10-22T15:08:19;0.97;;;0.80;;
34928;SDS011;21133;48.048;7.724;2022-10-22T15:10:55;1.17;;;1.00;;
34928;SDS011;21133;48.048;7.724;2022-10-22T15:13:21;0.70;;;0.70;;
34928;SDS011;21133;48.048;7.724;2022-10-22T15:15:47;0.60;;;0.60;;
34928;SDS011;21133;48.048;7.724;2022-10-22T15:18:13;1.50;;;0.90;;
34928;SDS011;21133;48.048;7.724;2022-10-22T15:20:39;4.70;;;1.80;;
34928;SDS011;21133;48.048;7.724;2022-10-22T15:23:05;3.40;;;0.97;;
34928;SDS011;21133;48.048;7.724;2022-10-22T15:25:31;1.00;;;1.00;;
34928;SDS011;21133;48.048;7.724;2022-10-22T15:27:57;1.30;;;1.20;;
34928;SDS011;21133;48.048;7.724;2022-10-22T15:30:23;0.80;;;0.80;;
34928;SDS011;21133;48.048;7.724;2022-10-22T15:32:49;0.50;;;0.50;;
34928;SDS011;21133;48.048;7.724;2022-10-22T15:35:15;0.93;;;0.60;;
34928;SDS011;21133;48.048;7.724;2022-10-22T15:37:41;0.70;;;0.70;;
34928;SDS011;21133;48.048;7.724;2022-10-22T15:40:07;1.90;;;0.70;;
34928;SDS011;21133;48.048;7.724;2022-10-22T15:42:33;0.50;;;0.50;;
34928;SDS011;21133;48.048;7.724;2022-10-22T15:44:59;0.57;;;0.57;;
34928;SDS011;21133;48.048;7.724;2022-10-22T15:47:26;0.60;;;0.53;;
34928;SDS011;21133;48.048;7.724;2022-10-22T15:49:53;0.70;;;0.70;;
34928;SDS011;21133;48.048;7.724;2022-10-22T15:52:19;1.07;;;0.60;;
34928;SDS011;21133;48.048;7.724;2022-10-22T15:54:46;0.90;;;0.77;;
34928;SDS011;21133;48.048;7.724;2022-10-22T15:57:12;2.20;;;0.90;;
34928;SDS011;21133;48.048;7.724;2022-10-22T15:59:38;1.67;;;1.03;;
34928;SDS011;21133;48.048;7.724;2022-10-22T16:02:04;1.27;;;1.00;;
34928;SDS011;21133;48.048;7.724;2022-10-22T16:04:31;2.87;;;0.80;;